Time;durP1;ratioP1;P1;durP2;ratioP2;P2;SDS_P1;SDS_P2;PMS_P1;PMS_P2;Temp;Humidity;BMP_temperature;BMP_pressure;BME280_temperature;BME280_humidity;BME280_pressure;Samples;Min_cycle;Max_cycle;Signal;HPM_P1;HPM_P2
2021/03/13 00:01:13;;;;;;;28.92;6.07;;;;;;;;;;5053221;28;20048;-67
2021/03/13 00:04:18;;;;;;;18.00;5.90;;;;;;;;;;5052093;28;20044;-68
2021/03/13 00:07:22;;;;;;;20.65;6.13;;;;;;;;;;5052977;28;20040;-68
2021/03/13 00:10:26;;;;;;;16.52;5.45;;;;;;;;;;5051951;28;20433;-68
2021/03/13 00:13:31;;;;;;;24.02;6.25;;;;;;;;;;5052583;28;20037;-68
2021/03/13 00:16:35;;;;;;;19.38;5.93;;;;;;;;;;5052623;28;20037;-68
2021/03/13 00:19:39;;;;;;;16.45;5.22;;;;;;;;;;5052626;28;20033;-68
2021/03/13 00:22:44;;;;;;;16.00;6.25;;;;;;;;;;5052466;28;20041;-68
2021/03/13 00:25:48;;;;;;;22.55;6.32;;;;;;;;;;5052410;28;20037;-66
2021/03/13 00:28:53;;;;;;;17.80;6.93;;;;;;;;;;5052989;28;20037;-69
2021/03/13 00:31:57;;;;;;;18.83;7.13;;;;;;;;;;5052381;28;20044;-69
2021/03/13 00:35:01;;;;;;;23.48;7.82;;;;;;;;;;5052396;28;20060;-69
2021/03/13 00:38:06;;;;;;;20.55;8.18;;;;;;;;;;5052218;28;20041;-69
2021/03/13 00:41:10;;;;;;;19.25;8.02;;;;;;;;;;5052007;28;20029;-68
2021/03/13 00:44:15;;;;;;;21.35;8.40;;;;;;;;;;5051974;28;20468;-68
2021/03/13 00:47:19;;;;;;;25.63;9.25;;;;;;;;;;5050869;28;20381;-68
2021/03/13 00:50:24;;;;;;;23.45;9.32;;;;;;;;;;5051693;28;20041;-67
2021/03/13 00:53:28;;;;;;;24.25;8.45;;;;;;;;;;5051641;28;20049;-67
2021/03/13 00:56:33;;;;;;;20.20;8.18;;;;;;;;;;5050721;28;20500;-68
2021/03/13 00:59:37;;;;;;;22.70;8.63;;;;;;;;;;5050837;28;20037;-68
2021/03/13 01:02:42;;;;;;;26.10;8.68;;;;;;;;;;5050777;28;20361;-68
2021/03/13 01:05:47;;;;;;;26.58;9.52;;;;;;;;;;5050768;28;20397;-68
2021/03/13 01:08:52;;;;;;;19.92;8.48;;;;;;;;;;5050762;28;20515;-67
2021/03/13 01:12:02;;;;;;;26.38;9.75;;;;;;;;;;5050758;28;20052;-67
2021/03/13 01:15:08;;;;;;;25.83;10.25;;;;;;;;;;5051233;28;20033;-67
2021/03/13 01:18:13;;;;;;;32.88;12.00;;;;;;;;;;5050606;28;20048;-67
2021/03/13 01:21:18;;;;;;;30.15;10.90;;;;;;;;;;5049644;28;20065;-67
2021/03/13 01:24:24;;;;;;;26.27;10.25;;;;;;;;;;5050094;28;20040;-67
2021/03/13 01:27:28;;;;;;;29.95;10.68;;;;;;;;;;5050189;28;20047;-67
2021/03/13 01:30:33;;;;;;;22.95;10.63;;;;;;;;;;5050234;28;20409;-67
2021/03/13 01:33:37;;;;;;;16.85;7.43;;;;;;;;;;5050071;28;20040;-67
2021/03/13 01:36:42;;;;;;;24.65;7.15;;;;;;;;;;5050855;28;20045;-68
2021/03/13 01:39:47;;;;;;;23.63;8.88;;;;;;;;;;5050407;28;20048;-68
2021/03/13 01:42:57;;;;;;;21.00;7.05;;;;;;;;;;5050011;28;20040;-68
2021/03/13 01:46:07;;;;;;;23.88;7.07;;;;;;;;;;5038540;28;20044;-69
2021/03/13 01:49:19;;;;;;;16.23;6.50;;;;;;;;;;5051121;28;20036;-69
2021/03/13 01:52:24;;;;;;;21.60;6.93;;;;;;;;;;5049927;28;20041;-68
2021/03/13 01:55:29;;;;;;;15.45;7.13;;;;;;;;;;5050241;28;20040;-69
2021/03/13 01:58:38;;;;;;;15.52;6.00;;;;;;;;;;5049847;28;20380;-68
2021/03/13 02:01:49;;;;;;;18.33;6.77;;;;;;;;;;5050953;28;20045;-68
2021/03/13 02:04:57;;;;;;;17.50;7.05;;;;;;;;;;5050567;28;20615;-68
2021/03/13 02:08:09;;;;;;;15.65;7.32;;;;;;;;;;5049750;28;20040;-67
2021/03/13 02:11:17;;;;;;;22.10;9.90;;;;;;;;;;5049791;28;20048;-68
2021/03/13 02:14:43;;;;;;;23.55;8.10;;;;;;;;;;5049727;28;20064;-69
2021/03/13 02:17:57;;;;;;;21.30;7.95;;;;;;;;;;5049938;28;20056;-69
2021/03/13 02:21:01;;;;;;;19.88;9.18;;;;;;;;;;5049498;28;20044;-68
2021/03/13 02:24:33;;;;;;;20.30;8.98;;;;;;;;;;5050475;28;20056;-68
2021/03/13 02:27:41;;;;;;;25.25;8.77;;;;;;;;;;5049535;28;20496;-68
2021/03/13 02:30:54;;;;;;;20.25;8.75;;;;;;;;;;5049560;28;20520;-68
2021/03/13 02:34:01;;;;;;;21.10;9.20;;;;;;;;;;5052640;28;20048;-68
2021/03/13 02:37:20;;;;;;;24.20;8.32;;;;;;;;;;5053342;28;20041;-68
2021/03/13 02:40:27;;;;;;;17.20;8.10;;;;;;;;;;5053257;28;20029;-68
2021/03/13 02:43:34;;;;;;;27.02;9.18;;;;;;;;;;5053469;28;20037;-68
2021/03/13 02:46:49;;;;;;;24.00;10.27;;;;;;;;;;5053405;28;20033;-68
2021/03/13 02:49:58;;;;;;;28.35;10.15;;;;;;;;;;5053276;28;20051;-68
2021/03/13 02:53:11;;;;;;;22.50;11.07;;;;;;;;;;5053248;28;20040;-68
2021/03/13 02:56:17;;;;;;;31.10;11.90;;;;;;;;;;5053370;28;20206;-68
2021/03/13 02:59:22;;;;;;;26.40;11.85;;;;;;;;;;5053129;28;20040;-68
2021/03/13 03:02:27;;;;;;;22.50;11.20;;;;;;;;;;5052954;28;20052;-68
2021/03/13 03:05:34;;;;;;;15.98;7.20;;;;;;;;;;5052940;28;20044;-68
2021/03/13 03:08:40;;;;;;;20.45;8.00;;;;;;;;;;5052963;28;20048;-68
2021/03/13 03:11:45;;;;;;;19.83;7.75;;;;;;;;;;5052478;28;20075;-68
2021/03/13 03:14:51;;;;;;;29.35;8.57;;;;;;;;;;5052853;28;20049;-68
2021/03/13 03:17:57;;;;;;;19.58;9.05;;;;;;;;;;5052827;28;20500;-68
2021/03/13 03:21:02;;;;;;;21.98;7.70;;;;;;;;;;5052628;28;20045;-68
2021/03/13 03:24:10;;;;;;;26.75;10.25;;;;;;;;;;5052489;28;20392;-68
2021/03/13 03:27:15;;;;;;;28.17;12.13;;;;;;;;;;5052679;28;20040;-68
2021/03/13 03:30:30;;;;;;;22.73;10.85;;;;;;;;;;5052141;28;20056;-68
2021/03/13 03:33:35;;;;;;;24.35;11.35;;;;;;;;;;5052487;28;20048;-68
2021/03/13 03:36:45;;;;;;;22.95;11.10;;;;;;;;;;5051980;28;20507;-68
2021/03/13 03:39:50;;;;;;;22.52;11.32;;;;;;;;;;5052309;28;20056;-68
2021/03/13 03:43:00;;;;;;;22.40;10.40;;;;;;;;;;5052404;28;20048;-68
2021/03/13 03:46:04;;;;;;;25.00;10.40;;;;;;;;;;5052038;28;20068;-68
2021/03/13 03:49:12;;;;;;;20.90;9.50;;;;;;;;;;5040675;28;20044;-68
2021/03/13 03:52:27;;;;;;;24.58;11.07;;;;;;;;;;5052291;28;20052;-68
2021/03/13 03:55:32;;;;;;;27.60;11.10;;;;;;;;;;5052066;28;20397;-68
2021/03/13 03:58:41;;;;;;;21.95;10.52;;;;;;;;;;5052933;28;20112;-67
2021/03/13 04:01:48;;;;;;;23.98;10.50;;;;;;;;;;5052707;28;20044;-67
2021/03/13 04:04:54;;;;;;;25.83;11.43;;;;;;;;;;5052776;28;20064;-67
2021/03/13 04:07:58;;;;;;;24.42;12.43;;;;;;;;;;5052508;28;20048;-67
2021/03/13 04:11:03;;;;;;;20.75;10.93;;;;;;;;;;5052699;28;20048;-68
2021/03/13 04:14:08;;;;;;;19.13;11.15;;;;;;;;;;5052382;28;20036;-67
2021/03/13 04:17:13;;;;;;;22.30;11.38;;;;;;;;;;5052533;28;20044;-67
2021/03/13 04:20:17;;;;;;;18.80;10.48;;;;;;;;;;5052136;28;20043;-67
2021/03/13 04:23:22;;;;;;;23.35;12.30;;;;;;;;;;5052316;28;20067;-67
2021/03/13 04:26:29;;;;;;;18.70;10.20;;;;;;;;;;5051621;28;20048;-67
2021/03/13 04:29:34;;;;;;;23.67;11.02;;;;;;;;;;5052293;28;20503;-67
2021/03/13 04:32:38;;;;;;;24.95;11.07;;;;;;;;;;5052290;28;20060;-67
2021/03/13 04:35:43;;;;;;;23.13;10.45;;;;;;;;;;5052190;28;20059;-67
2021/03/13 04:38:48;;;;;;;25.90;10.07;;;;;;;;;;5052170;28;20052;-67
2021/03/13 04:41:53;;;;;;;22.13;10.55;;;;;;;;;;5052143;28;20039;-67
2021/03/13 04:44:58;;;;;;;25.13;10.82;;;;;;;;;;5051983;28;20040;-67
2021/03/13 04:48:03;;;;;;;27.52;11.65;;;;;;;;;;5052062;28;20044;-67
2021/03/13 04:51:07;;;;;;;19.65;10.63;;;;;;;;;;5051701;28;20116;-67
2021/03/13 04:54:13;;;;;;;20.33;10.38;;;;;;;;;;5051551;28;20044;-67
2021/03/13 04:57:17;;;;;;;28.08;10.80;;;;;;;;;;5051536;28;20048;-67
2021/03/13 05:00:22;;;;;;;20.35;10.63;;;;;;;;;;5051811;28;20048;-67
2021/03/13 05:03:27;;;;;;;31.17;11.43;;;;;;;;;;5051337;28;20409;-67
2021/03/13 05:06:31;;;;;;;18.90;10.85;;;;;;;;;;5052072;28;20052;-67
2021/03/13 05:09:35;;;;;;;26.35;10.25;;;;;;;;;;5051396;28;20048;-67
2021/03/13 05:12:40;;;;;;;21.40;10.45;;;;;;;;;;5051561;28;20054;-67
2021/03/13 05:15:44;;;;;;;22.48;11.02;;;;;;;;;;5051092;28;20040;-67
2021/03/13 05:18:49;;;;;;;25.27;10.60;;;;;;;;;;5051310;28;20056;-67
2021/03/13 05:21:53;;;;;;;17.80;10.57;;;;;;;;;;5051003;28;20048;-67
2021/03/13 05:24:58;;;;;;;24.13;11.40;;;;;;;;;;5050349;28;20048;-67
2021/03/13 05:28:03;;;;;;;24.17;11.55;;;;;;;;;;5050324;28;20041;-67
2021/03/13 05:31:07;;;;;;;21.30;11.18;;;;;;;;;;5050200;28;20102;-67
2021/03/13 05:34:12;;;;;;;21.80;11.50;;;;;;;;;;5050733;28;20040;-67
2021/03/13 05:37:16;;;;;;;22.70;11.52;;;;;;;;;;5051103;28;20043;-67
2021/03/13 05:40:20;;;;;;;24.25;11.75;;;;;;;;;;5050797;28;20503;-67
2021/03/13 05:43:25;;;;;;;25.23;12.10;;;;;;;;;;5050832;28;20052;-67
2021/03/13 05:46:35;;;;;;;20.38;11.65;;;;;;;;;;5050738;28;20031;-67
2021/03/13 05:49:42;;;;;;;26.65;12.65;;;;;;;;;;5050790;28;20040;-67
2021/03/13 05:52:55;;;;;;;25.90;11.05;;;;;;;;;;5050997;28;20052;-67
2021/03/13 05:56:00;;;;;;;19.23;10.75;;;;;;;;;;5050725;28;20040;-67
2021/03/13 05:59:05;;;;;;;20.35;10.98;;;;;;;;;;5050990;28;20040;-67
2021/03/13 06:02:10;;;;;;;20.52;12.35;;;;;;;;;;5050242;28;20507;-67
2021/03/13 06:05:15;;;;;;;24.45;11.95;;;;;;;;;;5051015;28;20646;-67
2021/03/13 06:08:20;;;;;;;25.65;11.07;;;;;;;;;;5053025;28;20044;-67
2021/03/13 06:11:24;;;;;;;19.42;11.75;;;;;;;;;;5054710;28;20500;-67
2021/03/13 06:14:28;;;;;;;25.23;13.63;;;;;;;;;;5054344;28;20522;-70
2021/03/13 06:17:51;;;;;;;30.42;16.52;;;;;;;;;;5054166;28;20047;-70
2021/03/13 06:20:55;;;;;;;28.95;17.20;;;;;;;;;;5053832;28;20048;-70
2021/03/13 06:24:01;;;;;;;20.88;14.43;;;;;;;;;;5054392;28;20048;-70
2021/03/13 06:27:05;;;;;;;26.67;14.07;;;;;;;;;;5054413;28;20044;-70
2021/03/13 06:30:12;;;;;;;22.27;12.23;;;;;;;;;;5053871;28;20508;-70
2021/03/13 06:33:30;;;;;;;27.23;13.55;;;;;;;;;;5054090;28;20044;-69
2021/03/13 06:36:34;;;;;;;17.77;10.48;;;;;;;;;;5054096;28;20055;-69
2021/03/13 06:39:39;;;;;;;33.63;21.00;;;;;;;;;;5054017;28;20404;-70
2021/03/13 06:42:43;;;;;;;24.63;12.68;;;;;;;;;;5054451;28;20044;-69
2021/03/13 06:45:53;;;;;;;25.67;13.00;;;;;;;;;;5053620;28;20051;-69
2021/03/13 06:48:58;;;;;;;22.77;11.80;;;;;;;;;;5054098;28;20060;-70
2021/03/13 06:52:03;;;;;;;29.23;12.57;;;;;;;;;;5053748;28;20056;-70
2021/03/13 06:55:08;;;;;;;28.88;12.82;;;;;;;;;;5054006;28;20063;-71
2021/03/13 06:58:13;;;;;;;34.28;22.08;;;;;;;;;;5053924;28;20068;-70
2021/03/13 07:01:25;;;;;;;24.33;12.52;;;;;;;;;;5054140;28;20499;-69
2021/03/13 07:04:33;;;;;;;22.33;13.40;;;;;;;;;;5053510;28;20052;-69
2021/03/13 07:07:37;;;;;;;18.00;11.40;;;;;;;;;;5053296;28;20036;-69
2021/03/13 07:10:42;;;;;;;20.02;11.10;;;;;;;;;;5053721;28;20048;-69
2021/03/13 07:13:48;;;;;;;18.30;9.80;;;;;;;;;;5052610;28;20044;-69
2021/03/13 07:16:53;;;;;;;22.10;11.18;;;;;;;;;;5053347;28;20033;-67
2021/03/13 07:19:58;;;;;;;20.95;11.52;;;;;;;;;;5052033;28;20048;-66
2021/03/13 07:23:03;;;;;;;18.98;10.73;;;;;;;;;;5053045;28;20060;-66
2021/03/13 07:26:10;;;;;;;18.15;8.93;;;;;;;;;;5053437;28;20056;-67
2021/03/13 07:29:15;;;;;;;15.27;9.73;;;;;;;;;;5053265;28;20145;-66
2021/03/13 07:32:22;;;;;;;21.67;10.50;;;;;;;;;;5053007;28;20045;-66
2021/03/13 07:35:28;;;;;;;20.50;10.20;;;;;;;;;;5052919;28;20491;-67
2021/03/13 07:38:32;;;;;;;16.33;9.30;;;;;;;;;;5053057;28;20048;-67
2021/03/13 07:41:37;;;;;;;22.65;10.43;;;;;;;;;;5052858;28;20040;-67
2021/03/13 07:44:42;;;;;;;18.88;10.30;;;;;;;;;;5052912;28;20040;-66
2021/03/13 07:47:46;;;;;;;21.50;9.45;;;;;;;;;;5052751;28;20499;-67
2021/03/13 07:50:51;;;;;;;23.50;8.88;;;;;;;;;;5052641;28;20056;-67
2021/03/13 07:53:55;;;;;;;18.95;9.45;;;;;;;;;;5052911;28;20398;-67
2021/03/13 07:57:00;;;;;;;18.55;9.68;;;;;;;;;;5052451;28;20045;-67
2021/03/13 08:00:05;;;;;;;27.92;9.90;;;;;;;;;;5052579;28;20052;-67
2021/03/13 08:03:33;;;;;;;23.42;9.38;;;;;;;;;;5052444;28;20037;-67
2021/03/13 08:06:57;;;;;;;26.52;10.35;;;;;;;;;;5052464;28;20033;-66
2021/03/13 08:10:02;;;;;;;16.75;9.30;;;;;;;;;;5052400;28;20392;-66
2021/03/13 08:13:11;;;;;;;21.90;11.13;;;;;;;;;;5052355;28;20049;-66
2021/03/13 08:16:35;;;;;;;21.85;9.73;;;;;;;;;;5052665;28;20040;-66
2021/03/13 08:19:42;;;;;;;27.98;9.90;;;;;;;;;;5052445;28;20033;-66
2021/03/13 08:23:07;;;;;;;20.13;8.52;;;;;;;;;;5052167;28;20041;-67
2021/03/13 08:26:11;;;;;;;16.55;9.30;;;;;;;;;;5051919;28;20033;-66
2021/03/13 08:29:15;;;;;;;20.90;10.18;;;;;;;;;;5052189;28;20040;-67
2021/03/13 08:32:40;;;;;;;19.92;10.02;;;;;;;;;;5051894;28;20051;-67
2021/03/13 08:35:46;;;;;;;24.92;10.27;;;;;;;;;;5052088;28;20048;-66
2021/03/13 08:38:53;;;;;;;22.02;9.93;;;;;;;;;;5052207;28;20048;-67
2021/03/13 08:41:58;;;;;;;14.68;9.93;;;;;;;;;;5051960;28;20047;-66
2021/03/13 08:45:13;;;;;;;18.45;8.73;;;;;;;;;;5051567;28;20037;-66
2021/03/13 08:48:17;;;;;;;23.65;10.77;;;;;;;;;;5051775;28;20044;-67
2021/03/13 08:51:21;;;;;;;25.15;10.90;;;;;;;;;;5051528;28;20036;-67
2021/03/13 08:54:55;;;;;;;21.27;9.25;;;;;;;;;;5051830;28;20044;-67
2021/03/13 08:57:59;;;;;;;19.15;8.90;;;;;;;;;;5051580;28;20397;-67
2021/03/13 09:01:17;;;;;;;25.63;11.45;;;;;;;;;;5051457;28;20040;-66
2021/03/13 09:04:23;;;;;;;26.15;11.13;;;;;;;;;;5051353;28;20044;-67
2021/03/13 09:07:27;;;;;;;18.80;9.55;;;;;;;;;;5051391;28;20127;-67
2021/03/13 09:10:31;;;;;;;24.23;10.82;;;;;;;;;;5051373;28;20408;-67
2021/03/13 09:13:36;;;;;;;19.52;8.57;;;;;;;;;;5051210;28;20051;-67
2021/03/13 09:16:41;;;;;;;18.77;7.40;;;;;;;;;;5051633;28;20033;-67
2021/03/13 09:19:47;;;;;;;22.50;7.68;;;;;;;;;;5051277;28;20048;-67
2021/03/13 09:22:52;;;;;;;17.63;8.63;;;;;;;;;;5050928;28;20051;-67
2021/03/13 09:25:56;;;;;;;23.58;8.55;;;;;;;;;;5051417;28;20044;-67
2021/03/13 09:29:00;;;;;;;21.35;9.38;;;;;;;;;;5051303;28;20056;-67
2021/03/13 09:32:05;;;;;;;13.68;7.25;;;;;;;;;;5050868;28;20067;-67
2021/03/13 09:35:10;;;;;;;11.43;6.75;;;;;;;;;;5051127;28;20136;-67
2021/03/13 09:38:14;;;;;;;11.85;6.80;;;;;;;;;;5050601;28;20037;-67
2021/03/13 09:41:19;;;;;;;13.93;5.35;;;;;;;;;;5050544;28;20052;-67
2021/03/13 09:44:33;;;;;;;9.90;5.50;;;;;;;;;;5051020;28;20436;-67
2021/03/13 09:47:37;;;;;;;18.75;5.90;;;;;;;;;;5050748;28;20041;-67
2021/03/13 09:50:43;;;;;;;24.15;8.07;;;;;;;;;;5050985;28;20056;-67
2021/03/13 09:53:48;;;;;;;12.98;5.53;;;;;;;;;;5050555;28;20048;-65
2021/03/13 09:56:52;;;;;;;29.05;5.85;;;;;;;;;;5050188;28;20507;-66
2021/03/13 09:59:57;;;;;;;30.50;6.35;;;;;;;;;;5050821;28;20036;-65
2021/03/13 10:03:02;;;;;;;26.15;6.50;;;;;;;;;;5050046;28;20515;-67
2021/03/13 10:06:06;;;;;;;16.55;5.07;;;;;;;;;;5049753;28;20511;-67
2021/03/13 10:09:11;;;;;;;15.77;5.30;;;;;;;;;;5050760;28;20048;-67
2021/03/13 10:12:22;;;;;;;27.75;5.95;;;;;;;;;;5050525;28;20056;-69
2021/03/13 10:15:30;;;;;;;19.25;9.57;;;;;;;;;;5050468;28;20048;-69
2021/03/13 10:18:38;;;;;;;21.27;7.60;;;;;;;;;;5050564;28;20499;-65
2021/03/13 10:22:02;;;;;;;20.38;5.50;;;;;;;;;;5050159;28;20053;-66
2021/03/13 10:25:08;;;;;;;20.17;5.72;;;;;;;;;;5050078;28;20378;-65
2021/03/13 10:28:13;;;;;;;93.28;60.55;;;;;;;;;;5050503;28;20042;-65
2021/03/13 10:31:19;;;;;;;21.00;7.65;;;;;;;;;;5050003;28;20052;-66
2021/03/13 10:34:32;;;;;;;18.35;5.88;;;;;;;;;;5050375;28;20037;-66
2021/03/13 10:37:47;;;;;;;19.25;5.40;;;;;;;;;;5050742;28;20456;-66
2021/03/13 10:40:52;;;;;;;25.50;5.63;;;;;;;;;;5050474;28;20037;-65
2021/03/13 10:43:57;;;;;;;13.70;4.55;;;;;;;;;;5050533;28;20029;-65
2021/03/13 10:47:01;;;;;;;31.48;14.00;;;;;;;;;;5049829;28;20037;-65
2021/03/13 10:50:06;;;;;;;18.45;7.55;;;;;;;;;;5050464;28;20143;-66
2021/03/13 10:53:27;;;;;;;14.70;5.95;;;;;;;;;;5050826;28;20064;-65
2021/03/13 10:56:42;;;;;;;104.60;76.93;;;;;;;;;;5053696;28;20503;-68
2021/03/13 10:59:46;;;;;;;19.40;7.50;;;;;;;;;;5053390;28;20040;-63
2021/03/13 11:02:50;;;;;;;19.35;4.72;;;;;;;;;;5054545;28;20037;-66
2021/03/13 11:05:55;;;;;;;13.38;4.75;;;;;;;;;;5053719;28;20037;-66
2021/03/13 11:09:00;;;;;;;17.02;4.70;;;;;;;;;;5053752;28;20037;-66
2021/03/13 11:12:05;;;;;;;19.63;5.80;;;;;;;;;;5053615;28;20045;-64
2021/03/13 11:15:10;;;;;;;13.50;4.82;;;;;;;;;;5053268;28;20041;-64
2021/03/13 11:18:15;;;;;;;21.65;4.63;;;;;;;;;;5053278;28;20361;-64
2021/03/13 11:21:20;;;;;;;13.13;4.35;;;;;;;;;;5052973;28;20067;-64
2021/03/13 11:24:25;;;;;;;17.73;4.45;;;;;;;;;;5053136;28;20140;-64
2021/03/13 11:27:30;;;;;;;11.48;3.67;;;;;;;;;;5053055;28;20042;-64
2021/03/13 11:30:34;;;;;;;15.38;3.95;;;;;;;;;;5053045;28;20033;-64
2021/03/13 11:33:39;;;;;;;12.25;4.18;;;;;;;;;;5052155;28;20056;-65
2021/03/13 11:36:44;;;;;;;15.73;4.63;;;;;;;;;;5052743;28;20037;-65
2021/03/13 11:39:48;;;;;;;17.42;4.93;;;;;;;;;;5053190;28;20041;-64
2021/03/13 11:42:55;;;;;;;18.50;4.00;;;;;;;;;;5052928;28;20061;-64
2021/03/13 11:46:00;;;;;;;10.32;4.93;;;;;;;;;;5052888;28;20046;-64
2021/03/13 11:49:04;;;;;;;10.02;4.80;;;;;;;;;;5052804;28;20033;-65
2021/03/13 11:52:09;;;;;;;13.77;3.78;;;;;;;;;;5051904;28;20049;-66
2021/03/13 11:55:14;;;;;;;13.55;4.78;;;;;;;;;;5052949;28;20036;-66
2021/03/13 11:58:18;;;;;;;13.82;4.15;;;;;;;;;;5053222;28;20052;-67
2021/03/13 12:01:27;;;;;;;14.73;3.97;;;;;;;;;;5052943;28;20045;-68
2021/03/13 12:04:32;;;;;;;19.02;4.70;;;;;;;;;;5052215;28;20037;-66
2021/03/13 12:07:37;;;;;;;13.07;4.25;;;;;;;;;;5052914;28;20076;-65
2021/03/13 12:10:42;;;;;;;13.07;4.47;;;;;;;;;;5052702;28;20041;-65
2021/03/13 12:13:46;;;;;;;13.73;4.25;;;;;;;;;;5052558;28;20048;-65
2021/03/13 12:16:51;;;;;;;14.20;4.00;;;;;;;;;;5052260;28;20036;-66
2021/03/13 12:19:55;;;;;;;11.98;4.28;;;;;;;;;;5052824;28;20052;-66
2021/03/13 12:23:00;;;;;;;8.85;3.90;;;;;;;;;;5052035;28;20049;-66
2021/03/13 12:26:04;;;;;;;11.75;3.83;;;;;;;;;;5052327;28;20378;-66
2021/03/13 12:29:08;;;;;;;12.15;4.03;;;;;;;;;;5052110;28;20041;-66
2021/03/13 12:32:13;;;;;;;18.52;3.92;;;;;;;;;;5051846;28;20049;-65
2021/03/13 12:35:17;;;;;;;7.90;3.00;;;;;;;;;;5051969;28;20037;-65
2021/03/13 12:38:22;;;;;;;13.70;3.97;;;;;;;;;;5052114;28;20037;-65
2021/03/13 12:41:26;;;;;;;11.82;4.20;;;;;;;;;;5051872;28;20263;-65
2021/03/13 12:44:31;;;;;;;15.65;3.83;;;;;;;;;;5051333;28;20041;-65
2021/03/13 12:47:36;;;;;;;9.32;3.00;;;;;;;;;;5052285;28;20049;-65
2021/03/13 12:50:42;;;;;;;13.40;4.18;;;;;;;;;;5052088;28;20041;-65
2021/03/13 12:53:47;;;;;;;13.32;3.25;;;;;;;;;;5051912;28;20049;-65
2021/03/13 12:56:52;;;;;;;15.57;5.28;;;;;;;;;;5051856;28;20578;-65
2021/03/13 12:59:37;;;;;;;15.65;6.72;;;;;;;;;;5057289;28;20389;-65
2021/03/13 13:02:42;;;;;;;17.75;4.85;;;;;;;;;;5051274;28;20029;-65
2021/03/13 13:05:46;;;;;;;9.05;3.65;;;;;;;;;;5051721;28;20659;-65
2021/03/13 13:08:51;;;;;;;16.23;7.53;;;;;;;;;;5051614;28;20040;-69
2021/03/13 13:11:55;;;;;;;9.90;3.10;;;;;;;;;;5051501;28;20056;-65
2021/03/13 13:15:00;;;;;;;9.52;2.90;;;;;;;;;;5049874;28;20033;-65
2021/03/13 13:18:04;;;;;;;11.77;2.67;;;;;;;;;;5048645;28;20040;-65
2021/03/13 13:21:08;;;;;;;8.45;2.53;;;;;;;;;;5050977;28;20354;-65
2021/03/13 13:24:15;;;;;;;11.30;2.55;;;;;;;;;;5050998;28;20481;-65
2021/03/13 13:27:19;;;;;;;15.10;3.67;;;;;;;;;;5051117;28;20044;-64
2021/03/13 13:30:24;;;;;;;20.33;3.30;;;;;;;;;;5051111;28;20060;-66
2021/03/13 13:33:28;;;;;;;16.80;2.90;;;;;;;;;;5050864;28;20061;-67
2021/03/13 13:36:33;;;;;;;19.73;6.82;;;;;;;;;;5050981;28;20374;-66
2021/03/13 13:39:37;;;;;;;18.20;4.13;;;;;;;;;;5050817;28;20538;-65
2021/03/13 13:42:41;;;;;;;16.08;2.88;;;;;;;;;;5050953;28;20476;-65
2021/03/13 13:45:46;;;;;;;20.98;3.22;;;;;;;;;;5051197;28;20048;-65
2021/03/13 13:48:50;;;;;;;22.92;13.23;;;;;;;;;;5051141;28;20044;-71
2021/03/13 13:51:54;;;;;;;16.20;5.53;;;;;;;;;;5050944;28;20052;-65
2021/03/13 13:54:59;;;;;;;11.77;2.42;;;;;;;;;;5051179;28;20040;-65
2021/03/13 13:58:03;;;;;;;8.63;2.22;;;;;;;;;;5051195;28;20059;-65
2021/03/13 14:01:09;;;;;;;9.43;2.28;;;;;;;;;;5051099;28;20045;-65
2021/03/13 14:04:13;;;;;;;15.38;3.28;;;;;;;;;;5050893;28;20045;-66
2021/03/13 14:07:17;;;;;;;12.38;2.65;;;;;;;;;;5050693;28;20500;-65
2021/03/13 14:10:22;;;;;;;12.23;3.13;;;;;;;;;;5050772;28;20047;-64
2021/03/13 14:13:26;;;;;;;17.55;3.88;;;;;;;;;;5050362;28;20049;-64
2021/03/13 14:16:30;;;;;;;12.90;2.70;;;;;;;;;;5050510;28;20040;-65
2021/03/13 14:19:35;;;;;;;21.38;3.17;;;;;;;;;;5050643;28;20041;-65
2021/03/13 14:22:39;;;;;;;17.27;3.30;;;;;;;;;;5050085;28;20049;-66
2021/03/13 14:25:43;;;;;;;21.08;3.90;;;;;;;;;;5050812;28;20056;-64
2021/03/13 14:28:48;;;;;;;17.77;2.88;;;;;;;;;;5051965;28;20029;-64
2021/03/13 14:31:52;;;;;;;13.25;2.95;;;;;;;;;;5054586;28;20401;-65
2021/03/13 14:34:56;;;;;;;10.98;2.80;;;;;;;;;;5054580;28;20458;-65
2021/03/13 14:38:01;;;;;;;10.07;2.30;;;;;;;;;;5054300;28;20040;-65
2021/03/13 14:41:05;;;;;;;10.85;3.03;;;;;;;;;;5054506;28;20037;-65
2021/03/13 14:44:09;;;;;;;11.00;2.58;;;;;;;;;;5054411;28;20052;-65
2021/03/13 14:47:14;;;;;;;16.38;2.78;;;;;;;;;;5053974;28;20049;-65
2021/03/13 14:50:26;;;;;;;14.38;2.88;;;;;;;;;;5054515;28;20491;-65
2021/03/13 14:53:30;;;;;;;8.63;3.03;;;;;;;;;;5054075;28;20060;-65
2021/03/13 14:56:34;;;;;;;12.32;2.90;;;;;;;;;;5054201;28;20033;-65
2021/03/13 14:59:39;;;;;;;22.25;4.32;;;;;;;;;;5053976;28;20037;-65
2021/03/13 15:02:43;;;;;;;12.93;2.63;;;;;;;;;;5053897;28;20387;-65
2021/03/13 15:05:47;;;;;;;12.40;2.90;;;;;;;;;;5053914;28;20040;-65
2021/03/13 15:08:52;;;;;;;19.98;3.10;;;;;;;;;;5053885;28;20056;-65
2021/03/13 15:11:57;;;;;;;11.55;2.90;;;;;;;;;;5052771;28;20042;-66
2021/03/13 15:15:02;;;;;;;21.42;3.33;;;;;;;;;;5053538;28;20028;-66
2021/03/13 15:18:07;;;;;;;19.45;3.67;;;;;;;;;;5053414;28;20025;-66
2021/03/13 15:21:11;;;;;;;20.63;3.30;;;;;;;;;;5052331;28;20056;-65
2021/03/13 15:24:16;;;;;;;16.10;3.08;;;;;;;;;;5053229;28;20041;-65
2021/03/13 15:27:20;;;;;;;26.73;4.38;;;;;;;;;;5053074;28;20038;-66
2021/03/13 15:30:25;;;;;;;21.63;3.92;;;;;;;;;;5052721;28;20033;-66
2021/03/13 15:33:32;;;;;;;23.10;3.13;;;;;;;;;;5051982;28;20524;-65
2021/03/13 15:36:37;;;;;;;19.63;3.83;;;;;;;;;;5052211;28;20041;-65
2021/03/13 15:39:41;;;;;;;20.65;4.50;;;;;;;;;;5052516;28;20040;-66
2021/03/13 15:42:46;;;;;;;17.45;3.90;;;;;;;;;;5052532;28;20044;-65
2021/03/13 15:45:51;;;;;;;21.60;3.72;;;;;;;;;;5052058;28;20052;-65
2021/03/13 15:49:00;;;;;;;23.65;5.07;;;;;;;;;;5052307;28;20048;-66
2021/03/13 15:52:04;;;;;;;21.83;3.30;;;;;;;;;;5053000;28;20055;-64
2021/03/13 15:55:10;;;;;;;21.15;4.10;;;;;;;;;;5052458;28;20416;-65
2021/03/13 15:58:14;;;;;;;22.83;4.13;;;;;;;;;;5040984;28;20430;-65
2021/03/13 16:01:19;;;;;;;22.63;3.35;;;;;;;;;;5052988;28;20029;-65
2021/03/13 16:04:27;;;;;;;27.65;3.70;;;;;;;;;;5051952;28;20048;-64
2021/03/13 16:07:32;;;;;;;27.42;4.10;;;;;;;;;;5052597;28;20335;-65
2021/03/13 16:10:36;;;;;;;13.95;3.33;;;;;;;;;;5051937;28;20041;-65
2021/03/13 16:13:42;;;;;;;27.67;4.45;;;;;;;;;;5051523;28;20521;-64
2021/03/13 16:16:46;;;;;;;24.70;5.15;;;;;;;;;;5052477;28;20036;-65
2021/03/13 16:20:02;;;;;;;27.15;4.38;;;;;;;;;;5051763;28;20382;-65
2021/03/13 16:23:06;;;;;;;27.20;4.70;;;;;;;;;;5052377;28;20044;-65
2021/03/13 16:26:11;;;;;;;23.75;5.22;;;;;;;;;;5051975;28;20052;-65
2021/03/13 16:29:23;;;;;;;28.77;5.40;;;;;;;;;;5051352;28;20405;-64
2021/03/13 16:32:28;;;;;;;28.08;5.40;;;;;;;;;;5051315;28;20508;-65
2021/03/13 16:35:42;;;;;;;22.77;5.25;;;;;;;;;;5051247;28;20033;-65
2021/03/13 16:38:47;;;;;;;27.17;4.07;;;;;;;;;;5051096;28;20051;-64
2021/03/13 16:41:52;;;;;;;29.65;4.53;;;;;;;;;;5051099;28;20056;-65
2021/03/13 16:45:02;;;;;;;27.63;5.10;;;;;;;;;;5051619;28;20029;-65
2021/03/13 16:48:07;;;;;;;28.50;4.20;;;;;;;;;;5051602;28;20043;-65
2021/03/13 16:51:11;;;;;;;35.47;6.18;;;;;;;;;;5050715;28;20046;-65
2021/03/13 16:54:17;;;;;;;29.52;5.32;;;;;;;;;;5051404;28;20056;-65
2021/03/13 16:57:33;;;;;;;27.55;4.78;;;;;;;;;;5050971;28;20033;-64
2021/03/13 17:00:40;;;;;;;31.27;5.65;;;;;;;;;;5050976;28;20041;-65
2021/03/13 17:03:45;;;;;;;34.05;6.68;;;;;;;;;;5050366;28;20492;-64
2021/03/13 17:06:51;;;;;;;24.33;6.63;;;;;;;;;;5050341;28;20048;-65
2021/03/13 17:09:55;;;;;;;26.77;6.65;;;;;;;;;;5051430;28;20388;-64
2021/03/13 17:13:00;;;;;;;30.70;5.50;;;;;;;;;;5050041;28;20053;-65
2021/03/13 17:16:05;;;;;;;25.80;6.30;;;;;;;;;;5050391;28;20036;-65
2021/03/13 17:19:10;;;;;;;33.65;7.10;;;;;;;;;;5051215;28;20490;-65
2021/03/13 17:22:14;;;;;;;34.92;6.53;;;;;;;;;;5049850;28;20052;-64
2021/03/13 17:25:24;;;;;;;35.05;6.80;;;;;;;;;;5050267;28;20044;-64
2021/03/13 17:28:30;;;;;;;36.85;6.65;;;;;;;;;;5050424;28;20048;-65
2021/03/13 17:31:34;;;;;;;26.52;5.93;;;;;;;;;;5051137;28;20053;-65
2021/03/13 17:34:46;;;;;;;33.90;7.60;;;;;;;;;;5050273;28;20040;-65
2021/03/13 17:37:50;;;;;;;34.17;7.45;;;;;;;;;;5050661;28;20469;-65
2021/03/13 17:41:10;;;;;;;32.53;7.50;;;;;;;;;;5049971;28;20044;-65
2021/03/13 17:44:26;;;;;;;22.13;6.47;;;;;;;;;;5050330;28;20036;-65
2021/03/13 17:47:30;;;;;;;18.52;5.80;;;;;;;;;;5050861;28;20048;-65
2021/03/13 17:50:36;;;;;;;29.33;6.60;;;;;;;;;;5050541;28;20108;-65
2021/03/13 17:53:42;;;;;;;39.03;8.23;;;;;;;;;;5049388;28;20052;-66
2021/03/13 17:56:47;;;;;;;43.08;9.20;;;;;;;;;;5049818;28;20038;-65
2021/03/13 17:59:57;;;;;;;31.90;10.18;;;;;;;;;;5050735;28;20504;-65
2021/03/13 18:03:02;;;;;;;34.20;9.40;;;;;;;;;;5049878;28;20044;-66
2021/03/13 18:06:12;;;;;;;42.53;11.25;;;;;;;;;;5054025;28;20404;-66
2021/03/13 18:09:23;;;;;;;32.33;11.00;;;;;;;;;;5054729;28;20056;-66
2021/03/13 18:12:28;;;;;;;40.65;11.48;;;;;;;;;;5054530;28;20063;-65
2021/03/13 18:15:32;;;;;;;45.53;14.73;;;;;;;;;;5053981;28;20052;-66